Time;durP1;ratioP1;P1;durP2;ratioP2;P2;SDS_P1;SDS_P2;PMS_P1;PMS_P2;Temp;Humidity;BMP_temperature;BMP_pressure;BME280_temperature;BME280_humidity;BME280_pressure;Samples;Min_cycle;Max_cycle;Signal;HPM_P1;HPM_P2
2023/09/06 00:00:43;;;;;;;;;;;19.20;52.00;;;15.04;94.97;95806.25;4991056;28;19943;-46
2023/09/06 00:03:10;;;;;;;;;;;19.10;52.10;;;14.98;93.33;95808.22;4990532;28;19913;-54
2023/09/06 00:05:41;;;;;;;;;;;19.00;52.80;;;14.86;93.08;95805.16;4991523;28;20323;-49
2023/09/06 00:08:14;;;;;;;;;;;18.90;52.20;;;14.75;94.70;95806.34;4990962;28;19909;-47
2023/09/06 00:10:41;;;;;;;;;;;18.80;52.30;;;14.60;98.56;95801.94;4990266;28;19920;-47
2023/09/06 00:13:08;;;;;;;;;;;18.70;52.40;;;14.50;98.82;95792.09;4991050;28;19915;-51
2023/09/06 00:15:35;;;;;;;;;;;18.60;52.50;;;14.46;98.59;95793.75;4990561;28;19949;-48
2023/09/06 00:18:03;;;;;;;;;;;18.60;52.70;;;14.36;98.70;95796.53;4986269;28;19916;-48
2023/09/06 00:20:30;;;;;;;;;;;18.50;52.80;;;14.28;98.49;95797.94;4991016;28;19967;-52
2023/09/06 00:23:01;;;;;;;;;;;18.40;52.90;;;14.14;100.00;95796.22;4990344;28;20399;-48
2023/09/06 00:25:31;;;;;;;;;;;18.30;53.00;;;14.05;100.00;95796.00;4993872;28;19964;-48
2023/09/06 00:28:03;;;;;;;;;;;18.20;53.10;;;14.00;100.00;95794.16;4990257;28;20020;-47
2023/09/06 00:30:30;;;;;;;;;;;18.10;53.20;;;13.94;100.00;95789.91;4990857;28;19983;-50
2023/09/06 00:32:59;;;;;;;;;;;18.10;53.40;;;13.88;100.00;95786.50;4990251;28;19955;-48
2023/09/06 00:35:26;;;;;;;;;;;18.00;53.50;;;13.88;100.00;95780.31;4990913;28;20369;-48
2023/09/06 00:37:54;;;;;;;;;;;17.90;53.70;;;13.87;100.00;95784.88;4988763;28;19960;-46
2023/09/06 00:40:22;;;;;;;;;;;17.90;53.90;;;13.93;100.00;95779.50;4983582;28;20459;-46
2023/09/06 00:42:50;;;;;;;;;;;17.90;54.00;;;13.97;100.00;95778.66;4990656;28;19928;-47
2023/09/06 00:45:21;;;;;;;;;;;17.90;54.10;;;13.99;100.00;95775.69;4990264;28;19909;-47
2023/09/06 00:47:50;;;;;;;;;;;17.90;54.20;;;14.05;100.00;95764.66;4989053;28;19972;-49
2023/09/06 00:50:17;;;;;;;;;;;17.90;54.40;;;14.09;100.00;95773.72;4990595;28;19909;-49
2023/09/06 00:52:44;;;;;;;;;;;17.90;54.50;;;14.12;99.89;95770.47;4977615;28;19968;-47
2023/09/06 00:55:12;;;;;;;;;;;18.00;54.60;;;14.11;99.62;95768.91;4991320;28;19921;-47
2023/09/06 00:57:40;;;;;;;;;;;18.00;54.60;;;14.08;99.93;95772.13;4989845;28;19917;-47
2023/09/06 01:00:17;;;;;;;;;;;18.00;54.60;;;14.05;99.94;95772.69;4990969;28;19920;-48
2023/09/06 01:02:47;;;;;;;;;;;18.00;54.60;;;14.05;99.95;95770.03;4989486;28;19917;-48
2023/09/06 01:05:16;;;;;;;;;;;18.00;54.70;;;14.04;100.00;95770.28;4985424;28;19909;-50
2023/09/06 01:07:49;;;;;;;;;;;18.00;54.70;;;14.12;99.08;95775.84;4982680;28;20299;-51
2023/09/06 01:10:15;;;;;;;;;;;18.00;54.80;;;14.20;98.69;95770.97;4989203;28;19940;-49
2023/09/06 01:12:41;;;;;;;;;;;18.00;54.90;;;14.23;98.57;95773.09;4994045;28;19909;-48
2023/09/06 01:15:08;;;;;;;;;;;18.00;54.80;;;14.24;97.91;95775.47;4993471;28;19952;-49
2023/09/06 01:17:37;;;;;;;;;;;18.10;54.90;;;14.24;97.95;95777.34;4990067;28;19917;-47
2023/09/06 01:20:29;;;;;;;;;;;18.10;54.90;;;14.27;97.50;95782.16;4994227;28;20384;-49
2023/09/06 01:23:03;;;;;;;;;;;18.10;54.90;;;14.35;96.71;95785.03;4992586;28;19914;-47
2023/09/06 01:25:30;;;;;;;;;;;18.10;55.00;;;14.44;96.24;95782.50;4994826;28;19952;-46
2023/09/06 01:27:56;;;;;;;;;;;18.20;55.10;;;14.51;95.59;95777.66;4993395;28;19909;-48
2023/09/06 01:30:28;;;;;;;;;;;18.20;55.20;;;14.58;95.13;95780.78;4993944;28;19924;-49
2023/09/06 01:32:54;;;;;;;;;;;18.30;55.20;;;14.62;95.05;95775.66;4993161;28;19932;-50
2023/09/06 01:35:19;;;;;;;;;;;18.30;55.20;;;14.63;95.11;95781.81;4994136;28;19996;-51
2023/09/06 01:37:45;;;;;;;;;;;18.40;55.10;;;14.61;94.55;95787.47;4991973;28;19967;-45
2023/09/06 01:40:17;;;;;;;;;;;18.40;55.00;;;14.52;94.77;95789.97;4985400;28;19914;-46
2023/09/06 01:42:44;;;;;;;;;;;18.40;54.90;;;14.42;95.54;95779.31;4993556;28;19979;-46
2023/09/06 01:45:10;;;;;;;;;;;18.30;54.80;;;14.33;96.26;95778.34;4987467;28;19913;-45
2023/09/06 01:47:36;;;;;;;;;;;18.30;54.80;;;14.24;97.70;95791.53;4983003;28;20283;-49
2023/09/06 01:50:04;;;;;;;;;;;18.30;54.80;;;14.17;97.61;95784.94;4994028;28;20395;-48
2023/09/06 01:52:30;;;;;;;;;;;18.20;54.70;;;14.07;97.73;95786.63;4992514;28;20276;-45
2023/09/06 01:54:55;;;;;;;;;;;18.10;54.70;;;13.96;98.46;95782.41;4993947;28;19916;-48
2023/09/06 01:57:21;;;;;;;;;;;18.10;54.80;;;13.87;98.51;95782.22;4992765;28;19928;-45
2023/09/06 01:59:50;;;;;;;;;;;18.00;54.80;;;13.78;99.95;95781.22;4993502;28;19913;-47
2023/09/06 02:02:16;;;;;;;;;;;17.90;54.90;;;13.70;100.00;95787.19;5010463;23;19928;-46
2023/09/06 02:04:43;;;;;;;;;;;17.80;54.90;;;13.64;100.00;95786.41;5008026;28;20500;-47
2023/09/06 02:07:08;;;;;;;;;;;17.80;55.10;;;13.64;100.00;95790.97;5011217;28;20003;-47
2023/09/06 02:09:34;;;;;;;;;;;17.70;55.20;;;13.63;100.00;95798.19;4999514;28;19909;-45
2023/09/06 02:12:00;;;;;;;;;;;17.70;55.30;;;13.61;100.00;95791.53;4989207;28;19910;-44
2023/09/06 02:14:25;;;;;;;;;;;17.70;55.40;;;13.59;100.00;95791.78;4993807;28;19920;-46
2023/09/06 02:16:51;;;;;;;;;;;17.60;55.50;;;13.58;100.00;95784.84;4993148;28;19932;-46
2023/09/06 02:19:18;;;;;;;;;;;17.60;55.60;;;13.55;100.00;95782.72;4993716;28;19909;-44
2023/09/06 02:21:43;;;;;;;;;;;17.60;55.70;;;13.53;100.00;95786.75;4986392;28;19909;-46
2023/09/06 02:24:09;;;;;;;;;;;17.60;55.70;;;13.47;100.00;95783.31;4992106;28;20413;-46
2023/09/06 02:26:37;;;;;;;;;;;17.60;55.70;;;13.41;100.00;95787.09;4991400;28;19917;-44
2023/09/06 02:29:04;;;;;;;;;;;17.50;55.70;;;13.37;100.00;95786.84;4982420;28;20008;-44
2023/09/06 02:31:29;;;;;;;;;;;17.50;55.80;;;13.35;100.00;95788.19;4974642;28;20004;-44
2023/09/06 02:33:55;;;;;;;;;;;17.40;55.80;;;13.29;100.00;95790.13;4975587;28;20001;-46
2023/09/06 02:36:21;;;;;;;;;;;17.40;55.90;;;13.24;100.00;95787.44;4978701;28;19920;-48
2023/09/06 02:38:48;;;;;;;;;;;17.30;55.90;;;13.20;100.00;95787.19;4972822;28;19910;-50
2023/09/06 02:41:13;;;;;;;;;;;17.30;56.00;;;13.16;100.00;95791.50;4991449;28;20016;-45
2023/09/06 02:43:39;;;;;;;;;;;17.30;56.10;;;13.10;100.00;95792.59;4985932;28;20000;-44
2023/09/06 02:46:05;;;;;;;;;;;17.20;56.10;;;13.05;100.00;95792.63;4983424;28;19916;-45
2023/09/06 02:48:33;;;;;;;;;;;17.20;56.20;;;13.01;100.00;95796.91;4972778;28;19909;-45
2023/09/06 02:50:59;;;;;;;;;;;17.10;56.20;;;12.93;100.00;95797.47;4974640;28;19925;-46
2023/09/06 02:53:26;;;;;;;;;;;17.10;56.30;;;12.86;100.00;95797.78;4986572;28;20281;-46
2023/09/06 02:55:53;;;;;;;;;;;17.10;56.40;;;12.81;100.00;95802.34;4972963;28;19920;-46
2023/09/06 02:58:25;;;;;;;;;;;17.00;56.40;;;12.77;100.00;95806.63;4985359;28;20371;-44
2023/09/06 03:00:57;;;;;;;;;;;17.00;57.10;;;12.73;100.00;95804.50;4986620;28;19913;-44
2023/09/06 03:03:26;;;;;;;;;;;16.90;56.50;;;12.73;100.00;95811.72;4977753;28;19913;-47
2023/09/06 03:05:57;;;;;;;;;;;16.90;56.60;;;12.75;100.00;95809.56;4976947;28;19914;-44
2023/09/06 03:08:25;;;;;;;;;;;16.90;56.80;;;12.73;100.00;95809.84;4972759;28;19916;-46
2023/09/06 03:10:52;;;;;;;;;;;16.80;56.90;;;12.74;100.00;95810.63;4973966;28;19933;-44
2023/09/06 03:13:20;;;;;;;;;;;16.80;56.90;;;12.76;100.00;95805.03;4977430;28;19917;-44
2023/09/06 03:15:46;;;;;;;;;;;16.80;57.00;;;12.79;100.00;95807.16;4999302;28;20012;-45
2023/09/06 03:18:12;;;;;;;;;;;16.80;57.10;;;12.80;100.00;95804.22;4981178;28;19993;-44
2023/09/06 03:20:43;;;;;;;;;;;16.90;57.30;;;12.73;100.00;95807.19;4972970;28;19981;-44
2023/09/06 03:23:17;;;;;;;;;;;16.80;57.20;;;12.73;100.00;95820.53;4972707;28;20008;-44
2023/09/06 03:25:44;;;;;;;;;;;16.80;57.20;;;12.68;100.00;95822.41;4972359;28;20706;-45
2023/09/06 03:28:10;;;;;;;;;;;16.80;57.30;;;12.63;100.00;95820.56;4983552;28;20004;-44
2023/09/06 03:30:36;;;;;;;;;;;16.80;57.30;;;12.60;100.00;95823.78;4986114;28;20004;-44
2023/09/06 03:33:04;;;;;;;;;;;16.70;57.30;;;12.58;100.00;95828.59;4974122;28;20047;-44
2023/09/06 03:35:29;;;;;;;;;;;16.70;57.30;;;12.52;100.00;95829.69;4985675;28;19910;-47
2023/09/06 03:37:56;;;;;;;;;;;16.70;57.30;;;12.46;100.00;95825.41;4971905;28;19910;-47
2023/09/06 03:40:36;;;;;;;;;;;16.70;57.30;;;12.39;100.00;95831.03;4979812;28;19929;-47
2023/09/06 03:43:04;;;;;;;;;;;16.70;57.40;;;12.36;100.00;95822.75;4971712;28;19997;-47
2023/09/06 03:45:34;;;;;;;;;;;16.60;57.40;;;12.34;100.00;95824.91;4977756;28;20360;-45
2023/09/06 03:48:00;;;;;;;;;;;16.50;57.50;;;12.25;100.00;95820.13;4976390;28;20315;-44
2023/09/06 03:50:27;;;;;;;;;;;16.50;57.50;;;12.22;100.00;95817.97;4972237;28;20016;-45
2023/09/06 03:52:53;;;;;;;;;;;16.40;57.60;;;12.18;100.00;95826.78;4973956;28;19999;-44
2023/09/06 03:55:20;;;;;;;;;;;16.40;57.60;;;12.12;100.00;95827.84;4972224;28;20391;-45
2023/09/06 03:57:47;;;;;;;;;;;16.40;57.70;;;12.09;100.00;95833.72;4978790;28;19916;-43
2023/09/06 04:00:24;;;;;;;;;;;16.30;57.80;;;12.05;100.00;95830.78;4982164;28;27867;-45
2023/09/06 04:02:56;;;;;;;;;;;16.30;57.90;;;12.00;100.00;95833.44;4984708;28;19968;-48
2023/09/06 04:05:27;;;;;;;;;;;16.20;57.90;;;11.94;100.00;95839.84;4981201;28;19913;-44
2023/09/06 04:07:57;;;;;;;;;;;16.20;58.00;;;11.89;100.00;95839.88;4971814;28;19956;-45
2023/09/06 04:10:45;;;;;;;;;;;16.20;58.10;;;11.84;100.00;95835.28;4972856;28;19917;-44
2023/09/06 04:13:13;;;;;;;;;;;16.10;58.00;;;11.77;100.00;95840.09;4971584;28;19910;-46
2023/09/06 04:15:42;;;;;;;;;;;16.10;58.10;;;11.73;100.00;95844.38;4975853;28;19975;-44
2023/09/06 04:18:10;;;;;;;;;;;16.00;58.20;;;11.71;100.00;95841.16;4980055;28;19917;-44
2023/09/06 04:20:39;;;;;;;;;;;16.00;58.60;;;11.67;100.00;95845.41;4972008;28;19971;-44
2023/09/06 04:23:08;;;;;;;;;;;16.00;58.30;;;11.67;100.00;95848.09;4979934;28;20343;-45
2023/09/06 04:25:41;;;;;;;;;;;15.90;58.30;;;11.65;100.00;95852.88;4974880;28;20288;-46
2023/09/06 04:28:09;;;;;;;;;;;15.90;58.30;;;11.64;100.00;95859.28;5005586;28;20372;-44
2023/09/06 04:30:37;;;;;;;;;;;15.90;59.00;;;11.62;100.00;95858.75;4974050;28;19929;-45
2023/09/06 04:33:14;;;;;;;;;;;15.90;58.50;;;11.56;100.00;95861.41;4972860;28;20330;-46
2023/09/06 04:35:48;;;;;;;;;;;15.80;58.50;;;11.56;100.00;95860.59;4981070;28;19910;-49
2023/09/06 04:38:19;;;;;;;;;;;15.80;58.60;;;11.53;100.00;95861.94;4971156;28;19924;-48
2023/09/06 04:40:47;;;;;;;;;;;15.70;58.60;;;11.48;100.00;95853.13;4978991;28;20395;-46
2023/09/06 04:43:18;;;;;;;;;;;15.70;58.70;;;11.44;100.00;95847.53;4971402;28;19977;-45
2023/09/06 04:45:46;;;;;;;;;;;15.70;58.80;;;11.45;100.00;95848.31;4982222;28;19936;-47
2023/09/06 04:48:16;;;;;;;;;;;15.70;58.80;;;11.44;100.00;95844.84;4976854;28;19945;-47
2023/09/06 04:50:43;;;;;;;;;;;15.70;59.00;;;11.43;100.00;95847.75;4975156;28;19910;-48
2023/09/06 04:53:11;;;;;;;;;;;15.60;59.00;;;11.42;100.00;95846.97;4978962;28;20000;-45
2023/09/06 04:55:39;;;;;;;;;;;15.60;59.10;;;11.42;100.00;95851.50;4975042;28;19964;-46
2023/09/06 04:58:08;;;;;;;;;;;15.60;59.10;;;11.37;100.00;95856.81;4980920;28;19936;-49
2023/09/06 05:00:38;;;;;;;;;;;15.60;59.20;;;11.39;100.00;95862.69;4975669;28;20315;-45
2023/09/06 05:03:11;;;;;;;;;;;15.60;59.20;;;11.37;100.00;95859.47;4977236;28;19928;-45
2023/09/06 05:05:38;;;;;;;;;;;15.60;59.20;;;11.36;100.00;95864.03;4982950;28;20268;-45
2023/09/06 05:08:05;;;;;;;;;;;15.60;59.20;;;11.38;100.00;95869.91;5007731;28;20331;-46
2023/09/06 05:10:32;;;;;;;;;;;15.60;59.20;;;11.43;100.00;95871.78;4981759;28;20288;-46
2023/09/06 05:12:58;;;;;;;;;;;15.60;59.30;;;11.45;100.00;95861.66;4993361;28;19960;-45
2023/09/06 05:15:24;;;;;;;;;;;15.70;59.40;;;11.52;100.00;95865.66;4992367;28;19963;-47
2023/09/06 05:17:49;;;;;;;;;;;15.70;59.40;;;11.60;100.00;95874.22;4984837;28;19913;-45
2023/09/06 05:20:35;;;;;;;;;;;15.70;59.40;;;11.65;100.00;95876.91;4990326;28;19940;-45
2023/09/06 05:23:05;;;;;;;;;;;15.80;59.50;;;11.68;100.00;95874.50;4992613;28;20016;-48
2023/09/06 05:25:32;;;;;;;;;;;15.80;59.50;;;11.75;100.00;95875.06;4990791;28;19910;-46
2023/09/06 05:28:08;;;;;;;;;;;15.90;60.10;;;11.86;100.00;95878.56;4990416;28;19910;-47
2023/09/06 05:30:40;;;;;;;;;;;16.00;59.60;;;11.92;100.00;95879.38;4989875;28;19922;-45
2023/09/06 05:33:07;;;;;;;;;;;16.10;59.60;;;11.93;100.00;95881.78;4986742;28;19918;-46
2023/09/06 05:35:34;;;;;;;;;;;16.10;59.60;;;11.93;100.00;95872.97;4984639;28;19917;-45
2023/09/06 05:38:03;;;;;;;;;;;16.20;59.60;;;11.91;100.00;95877.75;4987935;28;19917;-45
2023/09/06 05:40:30;;;;;;;;;;;16.20;59.50;;;11.91;100.00;95883.09;4985529;28;20011;-47
2023/09/06 05:42:57;;;;;;;;;;;16.20;59.50;;;11.92;100.00;95877.50;4996298;28;19913;-46
2023/09/06 05:45:23;;;;;;;;;;;16.30;59.50;;;11.94;100.00;95880.72;4986814;28;19964;-45
2023/09/06 05:47:50;;;;;;;;;;;16.40;59.50;;;12.00;100.00;95884.19;4987248;28;19996;-46
2023/09/06 05:50:16;;;;;;;;;;;16.40;59.50;;;12.16;100.00;95875.13;4991811;28;20453;-46
2023/09/06 05:52:42;;;;;;;;;;;16.70;59.60;;;12.43;100.00;95880.19;4991287;28;19971;-46
2023/09/06 05:55:10;;;;;;;;;;;16.90;59.60;;;12.70;100.00;95871.88;4990696;28;19909;-50
2023/09/06 05:57:36;;;;;;;;;;;17.20;59.60;;;13.00;100.00;95870.16;4992375;28;19910;-45
2023/09/06 06:00:06;;;;;;;;;;;17.50;59.80;;;13.24;100.00;95877.59;4976752;28;19914;-46
2023/09/06 06:02:33;;;;;;;;;;;17.80;59.70;;;13.58;100.00;95864.34;4978950;28;19922;-46
2023/09/06 06:04:58;;;;;;;;;;;18.20;59.50;;;13.97;100.00;95867.03;4986344;28;20387;-47
2023/09/06 06:07:24;;;;;;;;;;;18.60;59.30;;;14.32;100.00;95870.50;4974040;28;19913;-46
2023/09/06 06:09:50;;;;;;;;;;;19.00;59.20;;;14.61;100.00;95875.13;4985224;28;20327;-48
2023/09/06 06:12:22;;;;;;;;;;;19.40;58.80;;;14.92;100.00;95872.94;4989761;28;19913;-44
2023/09/06 06:14:54;;;;;;;;;;;19.80;58.50;;;15.23;100.00;95876.06;4974604;28;20287;-47
2023/09/06 06:17:19;;;;;;;;;;;20.20;58.20;;;15.62;100.00;95873.16;4989693;28;19909;-45
2023/09/06 06:19:48;;;;;;;;;;;20.70;57.90;;;15.98;100.00;95880.72;4983545;28;19914;-45
2023/09/06 06:22:13;;;;;;;;;;;21.00;57.50;;;16.32;98.79;95887.75;4982265;28;19953;-46
2023/09/06 06:24:45;;;;;;;;;;;21.40;57.20;;;16.69;95.53;95891.44;4984739;28;20027;-46
2023/09/06 06:27:12;;;;;;;;;;;21.70;56.90;;;17.03;92.15;95893.81;4979873;28;20312;-45
2023/09/06 06:29:38;;;;;;;;;;;22.20;56.60;;;17.34;89.17;95889.44;4992491;28;19917;-46
2023/09/06 06:32:04;;;;;;;;;;;22.60;56.30;;;17.68;87.27;95885.53;4989089;28;19910;-47
2023/09/06 06:34:30;;;;;;;;;;;22.90;55.90;;;17.96;85.46;95885.50;4986288;28;19909;-46
2023/09/06 06:36:56;;;;;;;;;;;23.30;55.70;;;18.29;83.02;95890.66;4976322;28;20415;-45
2023/09/06 06:39:22;;;;;;;;;;;23.70;55.40;;;18.66;81.64;95892.19;4977389;28;20368;-47
2023/09/06 06:41:47;;;;;;;;;;;24.10;55.00;;;18.91;79.49;95893.47;4976979;28;19955;-46
2023/09/06 06:44:13;;;;;;;;;;;24.50;54.70;;;19.27;77.60;95893.28;4973182;28;19925;-47
2023/09/06 06:46:39;;;;;;;;;;;24.80;54.30;;;19.59;76.40;95896.75;4980855;28;19909;-47
2023/09/06 06:49:07;;;;;;;;;;;25.20;53.90;;;19.62;74.93;95896.91;4973542;28;20285;-46
2023/09/06 06:51:38;;;;;;;;;;;25.50;53.50;;;19.65;75.07;95898.22;4978163;28;20394;-48
2023/09/06 06:54:09;;;;;;;;;;;25.80;53.00;;;19.73;73.27;95894.72;4983010;28;19932;-48
2023/09/06 06:56:37;;;;;;;;;;;26.00;52.60;;;19.86;73.05;95904.59;4972849;28;19910;-47
2023/09/06 06:59:03;;;;;;;;;;;26.20;52.20;;;20.20;72.88;95905.75;4979665;28;20373;-46
2023/09/06 07:01:31;;;;;;;;;;;26.40;52.00;;;20.51;71.80;95899.38;4973111;28;19922;-46
2023/09/06 07:03:57;;;;;;;;;;;26.70;51.80;;;20.88;69.88;95902.53;4981401;28;19917;-50
2023/09/06 07:06:24;;;;;;;;;;;27.00;51.70;;;21.23;67.69;95900.50;4987238;28;20000;-49
2023/09/06 07:08:51;;;;;;;;;;;27.30;51.50;;;21.47;66.91;95898.03;4973264;28;19909;-49
2023/09/06 07:11:18;;;;;;;;;;;27.60;51.20;;;21.82;65.46;95903.25;4974083;28;20312;-51
2023/09/06 07:13:48;;;;;;;;;;;27.90;50.80;;;22.09;63.76;95899.25;4973058;28;19937;-46
2023/09/06 07:16:16;;;;;;;;;;;28.30;50.50;;;22.29;63.61;95905.81;4979312;28;20288;-49
2023/09/06 07:18:42;;;;;;;;;;;28.60;50.20;;;22.54;62.55;95905.94;5004112;28;19909;-46
2023/09/06 07:21:08;;;;;;;;;;;28.90;49.80;;;22.90;61.50;95907.16;4973566;28;20292;-46
2023/09/06 07:23:33;;;;;;;;;;;29.10;49.40;;;23.07;60.34;95901.59;4991697;28;19910;-49
2023/09/06 07:25:59;;;;;;;;;;;29.40;49.10;;;23.39;59.33;95904.56;4991878;28;19963;-46
2023/09/06 07:28:25;;;;;;;;;;;29.70;48.80;;;23.59;59.13;95900.94;4991323;28;19924;-46
2023/09/06 07:30:51;;;;;;;;;;;29.90;48.40;;;23.91;58.30;95898.44;4992168;28;19920;-46
2023/09/06 07:33:16;;;;;;;;;;;30.10;48.10;;;24.02;57.13;95897.63;4991005;28;19979;-47
2023/09/06 07:35:42;;;;;;;;;;;30.40;47.70;;;24.32;55.65;95889.19;4991556;28;19909;-46
2023/09/06 07:38:09;;;;;;;;;;;30.60;47.40;;;24.65;55.56;95896.34;5006685;28;19952;-46
2023/09/06 07:40:34;;;;;;;;;;;30.80;47.10;;;24.80;53.53;95892.88;4990928;28;19928;-48
2023/09/06 07:43:00;;;;;;;;;;;31.00;46.90;;;24.96;54.27;95897.56;4991694;28;20269;-47
2023/09/06 07:45:26;;;;;;;;;;;31.20;46.60;;;25.21;53.06;95900.94;4990467;28;19920;-46
2023/09/06 07:47:53;;;;;;;;;;;31.50;46.30;;;25.35;52.34;95904.00;4991884;28;19933;-48
2023/09/06 07:50:18;;;;;;;;;;;31.60;46.00;;;25.50;52.19;95910.63;4992089;28;20324;-46
2023/09/06 07:52:45;;;;;;;;;;;31.80;45.60;;;25.81;51.63;95910.63;4990457;28;19992;-47
2023/09/06 07:55:13;;;;;;;;;;;32.10;45.40;;;25.88;50.64;95911.91;4991537;28;19909;-49
2023/09/06 07:57:38;;;;;;;;;;;32.20;45.00;;;26.08;50.82;95916.28;4990685;28;19964;-46
2023/09/06 08:00:06;;;;;;;;;;;32.40;44.70;;;26.34;50.45;95912.16;4991528;28;20319;-46
2023/09/06 08:02:32;;;;;;;;;;;32.60;44.40;;;26.46;50.45;95912.81;5004707;23;20223;-52
2023/09/06 08:04:57;;;;;;;;;;;32.80;44.20;;;26.68;49.96;95910.53;4995194;28;20028;-49
2023/09/06 08:07:24;;;;;;;;;;;33.00;43.90;;;26.88;49.10;95914.03;4991508;28;19960;-52
2023/09/06 08:09:49;;;;;;;;;;;33.20;43.60;;;27.14;48.36;95902.41;4991697;28;19909;-52
2023/09/06 08:12:15;;;;;;;;;;;33.40;43.40;;;27.35;47.50;95902.00;4998693;28;20371;-50
2023/09/06 08:14:42;;;;;;;;;;;33.60;43.10;;;27.29;47.62;95898.78;4986865;28;20060;-55
2023/09/06 08:17:08;;;;;;;;;;;33.60;42.70;;;27.16;47.89;95906.38;4991214;28;20001;-54
2023/09/06 08:19:34;;;;;;;;;;;33.70;42.50;;;27.01;47.95;95901.78;4991364;28;19916;-52
2023/09/06 08:22:00;;;;;;;;;;;33.80;42.20;;;27.29;48.12;95906.19;4990402;28;19914;-50
2023/09/06 08:24:25;;;;;;;;;;;33.90;42.00;;;27.46;47.88;95908.47;4976403;28;20012;-56
2023/09/06 08:26:51;;;;;;;;;;;34.00;41.90;;;27.51;47.93;95907.34;4972360;28;20367;-50
2023/09/06 08:29:17;;;;;;;;;;;34.10;41.70;;;27.59;47.09;95906.31;4976360;28;19917;-56
2023/09/06 08:31:43;;;;;;;;;;;34.30;41.60;;;27.67;47.00;95906.06;4973138;28;20025;-52
2023/09/06 08:34:11;;;;;;;;;;;34.40;41.50;;;27.90;47.05;95911.53;4979930;28;20000;-56
2023/09/06 08:36:37;;;;;;;;;;;34.60;41.20;;;27.79;47.30;95910.56;4972339;28;19917;-51
2023/09/06 08:39:03;;;;;;;;;;;34.70;41.10;;;28.04;46.72;95910.13;4980997;28;19910;-52
2023/09/06 08:41:32;;;;;;;;;;;34.70;40.80;;;28.16;46.00;95909.91;4991953;28;19921;-50
2023/09/06 08:44:06;;;;;;;;;;;34.90;40.70;;;28.42;46.91;95902.84;4975288;28;20356;-50
2023/09/06 08:46:38;;;;;;;;;;;35.10;40.60;;;28.73;45.29;95902.44;4974270;28;19960;-49
2023/09/06 08:49:06;;;;;;;;;;;35.20;40.30;;;28.40;45.03;95900.50;4971755;28;19921;-49
2023/09/06 08:51:36;;;;;;;;;;;35.30;40.10;;;28.67;44.78;95898.47;4976919;28;19910;-50
2023/09/06 08:54:06;;;;;;;;;;;35.30;39.80;;;28.52;44.83;95900.25;4993599;28;19909;-51
2023/09/06 08:56:32;;;;;;;;;;;35.40;39.60;;;28.56;45.44;95895.59;4978260;28;19910;-52
2023/09/06 08:58:59;;;;;;;;;;;35.50;39.50;;;28.73;45.03;95894.22;4988546;28;20364;-50
2023/09/06 09:01:27;;;;;;;;;;;35.60;39.40;;;28.98;44.49;95899.97;4978030;28;19913;-49
2023/09/06 09:03:53;;;;;;;;;;;35.70;39.30;;;29.22;45.61;95904.16;4972442;28;19940;-51
2023/09/06 09:06:20;;;;;;;;;;;35.70;39.10;;;29.48;43.61;95899.69;4982152;28;19909;-52
2023/09/06 09:08:46;;;;;;;;;;;35.90;39.00;;;29.78;43.11;95912.50;4972364;28;19909;-55
2023/09/06 09:11:14;;;;;;;;;;;36.00;38.80;;;29.87;43.21;95897.28;4995601;28;19967;-52
2023/09/06 09:13:42;;;;;;;;;;;36.20;38.70;;;29.76;42.75;95899.16;4983535;28;19910;-51
2023/09/06 09:16:16;;;;;;;;;;;36.40;38.60;;;29.71;42.79;95899.53;4981948;28;19909;-56
2023/09/06 09:18:44;;;;;;;;;;;36.40;38.20;;;29.88;43.21;95903.53;4974032;28;19972;-52
2023/09/06 09:21:14;;;;;;;;;;;36.40;38.00;;;29.82;43.93;95892.13;4973973;28;19921;-50
2023/09/06 09:23:42;;;;;;;;;;;36.50;37.90;;;29.78;42.78;95896.03;4979459;28;19910;-55
2023/09/06 09:26:10;;;;;;;;;;;36.60;37.80;;;29.81;42.53;95904.28;4972124;28;20020;-56
2023/09/06 09:28:37;;;;;;;;;;;36.60;37.60;;;29.70;42.87;95898.72;4977644;28;19957;-53
2023/09/06 09:31:05;;;;;;;;;;;36.70;37.60;;;29.58;43.48;95896.22;4974026;28;19913;-54
2023/09/06 09:33:31;;;;;;;;;;;36.70;37.40;;;29.40;43.63;95893.34;4979332;28;19916;-53
2023/09/06 09:35:56;;;;;;;;;;;36.70;37.20;;;29.47;42.75;95898.91;5003838;28;19910;-54
2023/09/06 09:38:22;;;;;;;;;;;36.70;37.10;;;29.82;43.08;95899.59;4978152;28;20280;-52
2023/09/06 09:41:07;;;;;;;;;;;36.70;37.00;;;30.11;42.59;95900.53;4980641;28;19914;-53
2023/09/06 09:43:33;;;;;;;;;;;36.80;37.00;;;30.24;42.05;95898.28;4975625;28;19913;-51
2023/09/06 09:46:01;;;;;;;;;;;36.90;36.90;;;30.40;41.96;95894.06;4980819;28;19913;-52
2023/09/06 09:48:31;;;;;;;;;;;37.10;36.90;;;30.44;41.54;95896.84;4975615;28;19913;-54
2023/09/06 09:51:06;;;;;;;;;;;37.30;36.70;;;30.73;40.62;95894.97;4974940;28;19909;-49
2023/09/06 09:53:33;;;;;;;;;;;37.30;36.50;;;30.96;41.21;95889.16;4982947;28;20288;-50
2023/09/06 09:56:06;;;;;;;;;;;37.50;36.40;;;30.94;40.41;95883.28;4975184;28;19914;-49
2023/09/06 09:58:34;;;;;;;;;;;37.70;36.20;;;30.81;41.40;95882.88;4987545;28;20379;-50
2023/09/06 10:01:01;;;;;;;;;;;37.80;36.00;;;30.53;41.50;95889.03;4987936;28;19921;-50
2023/09/06 10:03:28;;;;;;;;;;;37.80;35.80;;;30.82;41.48;95881.69;4978482;28;19917;-52
2023/09/06 10:05:55;;;;;;;;;;;37.90;35.80;;;30.96;40.30;95877.38;4991146;28;19963;-50
2023/09/06 10:08:22;;;;;;;;;;;38.00;35.60;;;31.16;40.15;95875.84;4976788;28;19913;-56
2023/09/06 10:10:51;;;;;;;;;;;38.10;35.50;;;31.20;40.27;95876.63;4983193;28;19925;-52
2023/09/06 10:13:18;;;;;;;;;;;38.20;35.40;;;30.86;41.26;95871.47;4973415;28;19916;-53
2023/09/06 10:15:44;;;;;;;;;;;38.20;35.20;;;30.77;42.38;95865.56;4974585;28;19909;-55
2023/09/06 10:18:10;;;;;;;;;;;38.30;35.80;;;30.99;42.17;95873.84;4974825;28;19949;-52
2023/09/06 10:20:37;;;;;;;;;;;38.30;35.00;;;31.33;40.40;95864.09;4975349;28;19914;-50
2023/09/06 10:23:06;;;;;;;;;;;38.40;35.00;;;31.47;39.79;95860.56;4991241;28;20272;-53
2023/09/06 10:25:37;;;;;;;;;;;38.50;35.00;;;31.49;39.83;95863.69;4982616;28;19910;-53
2023/09/06 10:28:03;;;;;;;;;;;38.60;34.80;;;31.74;40.21;95860.94;4982023;28;20335;-55
2023/09/06 10:30:34;;;;;;;;;;;38.70;34.80;;;32.06;39.31;95860.13;4981776;28;19910;-56
2023/09/06 10:33:03;;;;;;;;;;;38.90;34.80;;;32.25;39.68;95856.91;4993134;28;20323;-54
2023/09/06 10:35:32;;;;;;;;;;;39.00;34.60;;;32.51;38.45;95851.34;4993691;28;19917;-53
2023/09/06 10:38:14;;;;;;;;;;;39.20;34.50;;;32.66;38.08;95853.63;4974604;28;19988;-53
2023/09/06 10:40:53;;;;;;;;;;;39.30;34.40;;;32.72;38.61;95852.03;4986011;28;19956;-55
2023/09/06 10:43:42;;;;;;;;;;;39.40;34.10;;;32.71;38.55;95853.19;4974011;28;19909;-52
2023/09/06 10:46:07;;;;;;;;;;;39.50;33.90;;;32.30;38.87;95850.19;4994191;28;19917;-58
2023/09/06 10:48:34;;;;;;;;;;;39.50;33.60;;;32.33;39.26;95845.88;4979831;28;19910;-55
2023/09/06 10:51:09;;;;;;;;;;;39.60;33.50;;;32.37;38.87;95839.13;4983856;28;19983;-51
2023/09/06 10:53:36;;;;;;;;;;;39.60;33.50;;;32.61;38.20;95837.50;4984135;28;20325;-55
2023/09/06 10:56:03;;;;;;;;;;;39.70;33.50;;;32.88;37.87;95834.97;4974101;28;19996;-52
2023/09/06 10:58:33;;;;;;;;;;;39.90;33.50;;;32.76;39.15;95835.44;4973814;28;19916;-56
2023/09/06 11:01:18;;;;;;;;;;;40.10;33.20;;;32.61;37.97;95831.97;4972990;28;19914;-56
2023/09/06 11:03:50;;;;;;;;;;;40.20;33.10;;;32.87;37.95;95833.41;4973488;28;20277;-52
2023/09/06 11:06:16;;;;;;;;;;;40.30;33.00;;;33.15;37.70;95829.69;4992615;28;19920;-54
2023/09/06 11:08:42;;;;;;;;;;;40.50;33.00;;;33.13;38.15;95832.09;4973855;28;20144;-55
2023/09/06 11:11:09;;;;;;;;;;;40.70;32.80;;;33.20;37.29;95831.25;4981430;28;20410;-57
2023/09/06 11:13:38;;;;;;;;;;;40.80;32.70;;;33.27;37.44;95828.41;4993063;28;19909;-51
2023/09/06 11:16:10;;;;;;;;;;;40.90;32.50;;;33.15;37.92;95826.94;4992165;28;20387;-56
2023/09/06 11:18:47;;;;;;;;;;;41.00;32.60;;;33.06;37.59;95820.28;4991229;28;19913;-51